Time;durP1;ratioP1;P1;durP2;ratioP2;P2;SDS_P1;SDS_P2;PMS_P1;PMS_P2;Temp;Humidity;BMP_temperature;BMP_pressure;BME280_temperature;BME280_humidity;BME280_pressure;Samples;Min_cycle;Max_cycle;Signal;HPM_P1;HPM_P2
2024/01/06 00:00:23;;;;;;;;;;;3.40;99.90;;;;;;5123902;27;19955;-71
2024/01/06 00:02:51;;;;;;;;;;;3.40;99.90;;;;;;5134487;27;19919;-71
2024/01/06 00:05:17;;;;;;;;;;;3.40;99.90;;;;;;5117866;27;20109;-69
2024/01/06 00:07:44;;;;;;;;;;;3.40;99.90;;;;;;5127177;27;19920;-70
2024/01/06 00:10:11;;;;;;;;;;;3.40;99.90;;;;;;5124782;28;20125;-69
2024/01/06 00:12:37;;;;;;;;;;;3.40;99.90;;;;;;5126115;27;20184;-71
2024/01/06 00:15:04;;;;;;;;;;;3.40;99.90;;;;;;5138549;27;19920;-70
2024/01/06 00:17:31;;;;;;;;;;;3.40;99.90;;;;;;5126312;27;19925;-69
2024/01/06 00:20:00;;;;;;;;;;;3.40;99.90;;;;;;5124661;27;19920;-70
2024/01/06 00:22:26;;;;;;;;;;;3.40;99.90;;;;;;5125500;27;20209;-70
2024/01/06 00:24:53;;;;;;;;;;;3.40;99.90;;;;;;5129579;27;19939;-70
2024/01/06 00:27:19;;;;;;;;;;;3.40;99.90;;;;;;5119212;27;19926;-71
2024/01/06 00:29:47;;;;;;;;;;;3.30;99.90;;;;;;5121003;28;19959;-70
2024/01/06 00:32:13;;;;;;;;;;;3.30;99.90;;;;;;5120821;27;20222;-69
2024/01/06 00:34:40;;;;;;;;;;;3.30;99.90;;;;;;5121985;27;19920;-69
2024/01/06 00:37:08;;;;;;;;;;;3.30;99.90;;;;;;5122062;27;20177;-70
2024/01/06 00:39:35;;;;;;;;;;;3.30;99.90;;;;;;5124168;27;19987;-70
2024/01/06 00:42:01;;;;;;;;;;;3.30;99.90;;;;;;5129401;27;19947;-70
2024/01/06 00:44:28;;;;;;;;;;;3.30;99.90;;;;;;5116131;28;19926;-70
2024/01/06 00:46:55;;;;;;;;;;;3.30;99.90;;;;;;5127019;27;20185;-70
2024/01/06 00:49:21;;;;;;;;;;;3.30;99.90;;;;;;5126218;27;19926;-70
2024/01/06 00:51:48;;;;;;;;;;;3.20;99.90;;;;;;5130032;27;20210;-69
2024/01/06 00:54:16;;;;;;;;;;;3.20;99.90;;;;;;5126502;27;19927;-70
2024/01/06 00:56:43;;;;;;;;;;;3.20;99.90;;;;;;5139917;27;19927;-69
2024/01/06 00:59:09;;;;;;;;;;;3.20;99.90;;;;;;5127229;27;19964;-71
2024/01/06 01:01:36;;;;;;;;;;;3.10;99.90;;;;;;5126997;27;19951;-70
2024/01/06 01:04:03;;;;;;;;;;;3.10;99.90;;;;;;5136567;27;19962;-69
2024/01/06 01:06:29;;;;;;;;;;;3.10;99.90;;;;;;5130868;27;19942;-70
2024/01/06 01:08:56;;;;;;;;;;;3.10;99.90;;;;;;5139600;27;19927;-69
2024/01/06 01:11:24;;;;;;;;;;;3.10;99.90;;;;;;5137567;27;19987;-70
2024/01/06 01:13:51;;;;;;;;;;;3.10;99.90;;;;;;5129394;27;19986;-69
2024/01/06 01:16:17;;;;;;;;;;;3.10;99.90;;;;;;5118430;28;20165;-69
2024/01/06 01:18:44;;;;;;;;;;;3.10;99.90;;;;;;5121830;28;19923;-72
2024/01/06 01:21:11;;;;;;;;;;;3.10;99.90;;;;;;5127876;28;19920;-70
2024/01/06 01:23:37;;;;;;;;;;;3.10;99.90;;;;;;5123759;28;20170;-69
2024/01/06 01:26:04;;;;;;;;;;;3.10;99.90;;;;;;5115735;28;19951;-71
2024/01/06 01:28:32;;;;;;;;;;;3.10;99.90;;;;;;5130664;27;19923;-69
2024/01/06 01:30:58;;;;;;;;;;;3.10;99.90;;;;;;5123743;28;20154;-69
2024/01/06 01:33:26;;;;;;;;;;;3.10;99.90;;;;;;5122811;28;19983;-69
2024/01/06 01:35:52;;;;;;;;;;;3.10;99.90;;;;;;5128376;28;20253;-69
2024/01/06 01:38:19;;;;;;;;;;;3.10;99.90;;;;;;5129100;28;19999;-71
2024/01/06 01:40:45;;;;;;;;;;;3.10;99.90;;;;;;5129723;28;19941;-69
2024/01/06 01:43:18;;;;;;;;;;;3.10;99.90;;;;;;5129143;28;19920;-70
2024/01/06 01:45:49;;;;;;;;;;;3.10;99.90;;;;;;5116029;28;20110;-69
2024/01/06 01:48:15;;;;;;;;;;;3.10;99.90;;;;;;5105945;28;20206;-69
2024/01/06 01:50:42;;;;;;;;;;;3.10;99.90;;;;;;5126415;27;19919;-69
2024/01/06 01:53:09;;;;;;;;;;;3.10;99.90;;;;;;5129839;27;19955;-69
2024/01/06 01:55:35;;;;;;;;;;;3.10;99.90;;;;;;5139036;27;19947;-71
2024/01/06 01:58:02;;;;;;;;;;;3.10;99.90;;;;;;5135911;27;19958;-69
2024/01/06 02:00:28;;;;;;;;;;;3.20;99.90;;;;;;5126338;27;19920;-69
2024/01/06 02:02:57;;;;;;;;;;;3.10;99.90;;;;;;5135179;27;19982;-70
2024/01/06 02:05:24;;;;;;;;;;;3.20;99.90;;;;;;5139453;27;19973;-69
2024/01/06 02:07:51;;;;;;;;;;;3.20;99.90;;;;;;5131846;27;19994;-69
2024/01/06 02:10:18;;;;;;;;;;;3.10;99.90;;;;;;5147518;27;20082;-70
2024/01/06 02:12:45;;;;;;;;;;;3.10;99.90;;;;;;5130034;27;19920;-69
2024/01/06 02:15:11;;;;;;;;;;;3.10;99.90;;;;;;5132733;27;19920;-69
2024/01/06 02:17:39;;;;;;;;;;;3.20;99.90;;;;;;5135294;27;19919;-70
2024/01/06 02:20:08;;;;;;;;;;;3.10;99.90;;;;;;5118926;28;19950;-69
2024/01/06 02:22:36;;;;;;;;;;;3.10;99.90;;;;;;5133911;27;19958;-69
2024/01/06 02:25:07;;;;;;;;;;;3.10;99.90;;;;;;5123368;27;19955;-69
2024/01/06 02:27:33;;;;;;;;;;;3.10;99.90;;;;;;5135297;27;19983;-69
2024/01/06 02:30:01;;;;;;;;;;;3.10;99.90;;;;;;5146560;27;19974;-70
2024/01/06 02:32:27;;;;;;;;;;;3.10;99.90;;;;;;5126136;27;19920;-69
2024/01/06 02:34:54;;;;;;;;;;;3.10;99.90;;;;;;5132743;27;19978;-69
2024/01/06 02:37:20;;;;;;;;;;;3.10;99.90;;;;;;5129455;27;19955;-69
2024/01/06 02:39:48;;;;;;;;;;;3.10;99.90;;;;;;5136849;27;19983;-69
2024/01/06 02:42:15;;;;;;;;;;;3.10;99.90;;;;;;5126973;28;19983;-69
2024/01/06 02:44:42;;;;;;;;;;;3.10;99.90;;;;;;5141824;27;19919;-70
2024/01/06 02:47:08;;;;;;;;;;;3.10;99.90;;;;;;5136784;27;19951;-70
2024/01/06 02:49:35;;;;;;;;;;;3.10;99.90;;;;;;5145117;27;19954;-69
2024/01/06 02:52:01;;;;;;;;;;;3.10;99.90;;;;;;5118952;28;19919;-69
2024/01/06 02:54:28;;;;;;;;;;;3.10;99.90;;;;;;5139133;27;19924;-70
2024/01/06 02:56:56;;;;;;;;;;;3.10;99.90;;;;;;5115676;27;19928;-69
2024/01/06 02:59:22;;;;;;;;;;;3.10;99.90;;;;;;5140485;27;20186;-70
2024/01/06 03:01:49;;;;;;;;;;;3.10;99.90;;;;;;5127686;27;19927;-69
2024/01/06 03:04:16;;;;;;;;;;;3.10;99.90;;;;;;5125430;28;19987;-69
2024/01/06 03:06:42;;;;;;;;;;;3.00;99.90;;;;;;5128636;27;20249;-69
2024/01/06 03:09:09;;;;;;;;;;;3.10;99.90;;;;;;5130939;27;19920;-69
2024/01/06 03:11:36;;;;;;;;;;;3.00;99.90;;;;;;5127585;27;19958;-69
2024/01/06 03:14:03;;;;;;;;;;;3.00;99.90;;;;;;5125971;27;19920;-70
2024/01/06 03:16:30;;;;;;;;;;;3.00;99.90;;;;;;5134313;27;19951;-70
2024/01/06 03:18:57;;;;;;;;;;;3.00;99.90;;;;;;5131385;27;19979;-69
2024/01/06 03:21:23;;;;;;;;;;;3.00;99.90;;;;;;5117917;27;19984;-69
2024/01/06 03:23:50;;;;;;;;;;;3.00;99.90;;;;;;5134809;27;19926;-71
2024/01/06 03:26:18;;;;;;;;;;;3.00;99.90;;;;;;5133588;27;19920;-70
2024/01/06 03:28:44;;;;;;;;;;;3.00;99.90;;;;;;5129092;27;19963;-69
2024/01/06 03:31:12;;;;;;;;;;;3.00;99.90;;;;;;5121976;28;19920;-69
2024/01/06 03:33:39;;;;;;;;;;;3.00;99.90;;;;;;5138994;27;19982;-69
2024/01/06 03:36:07;;;;;;;;;;;3.00;99.90;;;;;;5130376;27;19996;-69
2024/01/06 03:38:33;;;;;;;;;;;3.00;99.90;;;;;;5130538;27;19919;-69
2024/01/06 03:41:00;;;;;;;;;;;3.00;99.90;;;;;;5133663;27;19979;-69
2024/01/06 03:43:26;;;;;;;;;;;3.00;99.90;;;;;;5117719;28;19920;-70
2024/01/06 03:45:55;;;;;;;;;;;3.00;99.90;;;;;;5113316;28;19983;-69
2024/01/06 03:48:23;;;;;;;;;;;3.00;99.90;;;;;;5127483;27;19928;-71
2024/01/06 03:50:49;;;;;;;;;;;3.00;99.90;;;;;;5126752;27;19955;-70
2024/01/06 03:53:16;;;;;;;;;;;3.00;99.90;;;;;;5114355;27;20113;-69
2024/01/06 03:55:43;;;;;;;;;;;2.90;99.90;;;;;;5138397;27;19920;-69
2024/01/06 03:58:09;;;;;;;;;;;2.90;99.90;;;;;;5140156;27;19962;-70
2024/01/06 04:00:36;;;;;;;;;;;2.90;99.90;;;;;;5125231;28;19958;-69
2024/01/06 04:03:03;;;;;;;;;;;2.90;99.90;;;;;;5125099;28;19966;-71
2024/01/06 04:05:31;;;;;;;;;;;2.90;99.90;;;;;;5126850;27;19951;-70
2024/01/06 04:07:57;;;;;;;;;;;2.90;99.90;;;;;;5125145;27;19927;-71
2024/01/06 04:10:24;;;;;;;;;;;2.90;99.90;;;;;;5135135;27;19986;-71
2024/01/06 04:12:50;;;;;;;;;;;2.90;99.90;;;;;;5131308;27;19919;-69
2024/01/06 04:15:17;;;;;;;;;;;3.00;99.90;;;;;;5124645;28;19927;-70
2024/01/06 04:17:44;;;;;;;;;;;3.00;99.90;;;;;;5133389;27;19928;-69
2024/01/06 04:20:12;;;;;;;;;;;3.00;99.90;;;;;;5135396;27;19920;-69
2024/01/06 04:22:40;;;;;;;;;;;3.00;99.90;;;;;;5122521;27;19987;-69
2024/01/06 04:25:07;;;;;;;;;;;3.00;99.90;;;;;;5124467;28;19924;-69
2024/01/06 04:27:34;;;;;;;;;;;3.00;99.90;;;;;;5133955;27;20011;-70
2024/01/06 04:30:01;;;;;;;;;;;3.00;99.90;;;;;;5106824;28;20149;-71
2024/01/06 04:32:28;;;;;;;;;;;3.00;99.90;;;;;;5118159;27;20287;-70
2024/01/06 04:34:56;;;;;;;;;;;3.00;99.90;;;;;;5127230;27;19926;-69
2024/01/06 04:37:23;;;;;;;;;;;3.00;99.90;;;;;;5135455;27;19925;-69
2024/01/06 04:39:51;;;;;;;;;;;2.90;99.90;;;;;;5134800;27;19942;-69
2024/01/06 04:42:19;;;;;;;;;;;2.90;99.90;;;;;;5125878;27;19955;-71
2024/01/06 04:44:46;;;;;;;;;;;2.90;99.90;;;;;;5127232;27;20086;-69
2024/01/06 04:47:12;;;;;;;;;;;2.90;99.90;;;;;;5124745;28;19920;-71
2024/01/06 04:49:39;;;;;;;;;;;2.90;99.90;;;;;;5127810;27;20209;-70
2024/01/06 04:52:06;;;;;;;;;;;2.80;99.90;;;;;;5113050;27;19955;-69
2024/01/06 04:54:32;;;;;;;;;;;2.80;99.90;;;;;;5136960;27;19951;-71
2024/01/06 04:57:00;;;;;;;;;;;2.80;99.90;;;;;;5134617;27;19958;-69
2024/01/06 04:59:27;;;;;;;;;;;2.90;99.90;;;;;;5140092;27;20178;-69
2024/01/06 05:01:54;;;;;;;;;;;2.90;99.90;;;;;;5127224;27;19982;-71
2024/01/06 05:04:20;;;;;;;;;;;2.90;99.90;;;;;;5137882;27;19927;-69
2024/01/06 05:06:47;;;;;;;;;;;2.80;99.90;;;;;;5137463;27;20253;-71
2024/01/06 05:09:14;;;;;;;;;;;2.80;99.90;;;;;;5128821;27;19920;-69
2024/01/06 05:11:40;;;;;;;;;;;2.70;99.90;;;;;;5117962;27;19919;-69
2024/01/06 05:14:09;;;;;;;;;;;2.70;99.90;;;;;;5120915;28;19971;-69
2024/01/06 05:16:35;;;;;;;;;;;2.70;99.90;;;;;;5131778;27;20121;-69
2024/01/06 05:19:02;;;;;;;;;;;2.70;99.90;;;;;;5130614;27;19955;-68
2024/01/06 05:21:29;;;;;;;;;;;2.70;99.90;;;;;;5127153;27;19920;-69
2024/01/06 05:23:55;;;;;;;;;;;2.70;99.90;;;;;;5136509;27;19955;-70
2024/01/06 05:26:22;;;;;;;;;;;2.70;99.90;;;;;;5129847;28;20122;-69
2024/01/06 05:28:48;;;;;;;;;;;2.70;99.90;;;;;;5126111;27;20196;-69
2024/01/06 05:31:16;;;;;;;;;;;2.70;99.90;;;;;;5126163;28;20248;-69
2024/01/06 05:33:43;;;;;;;;;;;2.70;99.90;;;;;;5134746;28;19954;-69
2024/01/06 05:36:10;;;;;;;;;;;2.70;99.90;;;;;;5132061;28;19926;-71
2024/01/06 05:38:37;;;;;;;;;;;2.70;99.90;;;;;;5128094;28;19931;-71
2024/01/06 05:41:03;;;;;;;;;;;2.70;99.90;;;;;;5124058;28;19951;-69
2024/01/06 05:43:30;;;;;;;;;;;2.60;99.90;;;;;;5129203;28;19952;-71
2024/01/06 05:45:57;;;;;;;;;;;2.60;99.90;;;;;;5129232;28;20278;-69
2024/01/06 05:48:25;;;;;;;;;;;2.60;99.90;;;;;;5127200;28;19919;-71
2024/01/06 05:50:51;;;;;;;;;;;2.50;99.90;;;;;;5124485;28;19951;-69
2024/01/06 05:53:18;;;;;;;;;;;2.50;99.90;;;;;;5127403;28;19920;-69
2024/01/06 05:55:45;;;;;;;;;;;2.50;99.90;;;;;;5129762;28;19950;-70
2024/01/06 05:58:12;;;;;;;;;;;2.50;99.90;;;;;;5129093;28;19920;-71
2024/01/06 06:00:38;;;;;;;;;;;2.50;99.90;;;;;;5118059;28;20205;-69
2024/01/06 06:03:05;;;;;;;;;;;2.50;99.90;;;;;;5108152;28;20206;-70
2024/01/06 06:05:33;;;;;;;;;;;2.50;99.90;;;;;;5131658;28;20156;-71
2024/01/06 06:08:00;;;;;;;;;;;2.60;99.90;;;;;;5137304;28;20421;-69
2024/01/06 06:10:40;;;;;;;;;;;2.70;99.90;;;;;;5136599;28;19998;-69
2024/01/06 06:13:06;;;;;;;;;;;2.60;99.90;;;;;;5125731;28;19979;-71
2024/01/06 06:15:33;;;;;;;;;;;2.70;99.90;;;;;;5134360;28;19920;-69
2024/01/06 06:18:00;;;;;;;;;;;2.70;99.90;;;;;;5140519;28;20280;-69
2024/01/06 06:20:27;;;;;;;;;;;2.70;99.90;;;;;;5127815;28;19926;-70
2024/01/06 06:22:54;;;;;;;;;;;2.70;99.90;;;;;;5128237;28;20109;-69
2024/01/06 06:25:21;;;;;;;;;;;2.70;99.90;;;;;;5128669;28;19958;-69
2024/01/06 06:27:48;;;;;;;;;;;2.60;99.90;;;;;;5118755;28;19919;-70
2024/01/06 06:30:15;;;;;;;;;;;2.60;99.90;;;;;;5125944;28;20185;-69
2024/01/06 06:32:41;;;;;;;;;;;2.60;99.90;;;;;;5134948;28;20142;-70
2024/01/06 06:35:08;;;;;;;;;;;2.60;99.90;;;;;;5131607;28;19926;-69
2024/01/06 06:37:35;;;;;;;;;;;2.60;99.90;;;;;;5134701;27;19919;-71
2024/01/06 06:40:03;;;;;;;;;;;2.60;99.90;;;;;;5134985;27;20173;-71
2024/01/06 06:42:30;;;;;;;;;;;2.60;99.90;;;;;;5133842;27;19994;-69
2024/01/06 06:44:57;;;;;;;;;;;2.60;99.90;;;;;;5131612;27;19954;-69
2024/01/06 06:47:23;;;;;;;;;;;2.70;99.90;;;;;;5142472;27;19950;-69
2024/01/06 06:49:50;;;;;;;;;;;2.70;99.90;;;;;;5128851;27;19927;-69
2024/01/06 06:52:17;;;;;;;;;;;2.70;99.90;;;;;;5132549;27;19928;-71
2024/01/06 06:54:43;;;;;;;;;;;2.70;99.90;;;;;;5133830;27;20156;-68
2024/01/06 06:57:12;;;;;;;;;;;2.80;99.90;;;;;;5135721;27;19986;-69
2024/01/06 06:59:38;;;;;;;;;;;2.90;99.90;;;;;;5135552;27;19957;-71
2024/01/06 07:02:05;;;;;;;;;;;2.90;99.90;;;;;;5118200;27;19998;-70
2024/01/06 07:04:32;;;;;;;;;;;2.90;99.90;;;;;;5117820;28;19927;-70
2024/01/06 07:06:58;;;;;;;;;;;2.90;99.90;;;;;;5117891;28;19991;-69
2024/01/06 07:09:25;;;;;;;;;;;2.90;99.90;;;;;;5116957;28;20292;-70
2024/01/06 07:11:51;;;;;;;;;;;2.90;99.90;;;;;;5139063;27;19925;-71
2024/01/06 07:14:19;;;;;;;;;;;2.80;99.90;;;;;;5120864;28;20166;-71
2024/01/06 07:16:46;;;;;;;;;;;2.90;99.90;;;;;;5122552;27;19919;-70
2024/01/06 07:19:13;;;;;;;;;;;2.90;99.90;;;;;;5131680;27;19951;-70
2024/01/06 07:21:40;;;;;;;;;;;2.90;99.90;;;;;;5126438;28;20434;-70
2024/01/06 07:24:06;;;;;;;;;;;2.90;99.90;;;;;;5139562;27;19919;-70
2024/01/06 07:26:33;;;;;;;;;;;2.90;99.90;;;;;;5124833;28;19978;-71
2024/01/06 07:28:59;;;;;;;;;;;2.90;99.90;;;;;;5135052;27;19928;-70
2024/01/06 07:31:28;;;;;;;;;;;3.00;99.90;;;;;;5130684;27;20172;-73
2024/01/06 07:33:54;;;;;;;;;;;3.00;99.90;;;;;;5134223;27;19931;-69
2024/01/06 07:36:21;;;;;;;;;;;3.00;99.90;;;;;;5132711;27;19933;-70
2024/01/06 07:38:48;;;;;;;;;;;3.00;99.90;;;;;;5136816;27;19950;-69
2024/01/06 07:41:14;;;;;;;;;;;3.00;99.90;;;;;;5135511;27;19927;-72
2024/01/06 07:43:41;;;;;;;;;;;3.00;99.90;;;;;;5132494;27;19931;-70
2024/01/06 07:46:09;;;;;;;;;;;3.00;99.90;;;;;;5135570;27;19919;-70
2024/01/06 07:48:37;;;;;;;;;;;3.00;99.90;;;;;;5133938;27;19927;-69
2024/01/06 07:51:04;;;;;;;;;;;2.90;99.90;;;;;;5133897;27;19919;-69
2024/01/06 07:53:30;;;;;;;;;;;2.90;99.90;;;;;;5134877;27;19923;-69
2024/01/06 07:55:57;;;;;;;;;;;3.00;99.90;;;;;;5133368;27;19990;-69
2024/01/06 07:58:24;;;;;;;;;;;3.00;99.90;;;;;;5133859;27;19990;-69
2024/01/06 08:00:50;;;;;;;;;;;3.00;99.90;;;;;;5133682;27;19924;-71
2024/01/06 08:03:17;;;;;;;;;;;3.00;99.90;;;;;;5127245;27;20197;-70
2024/01/06 08:05:45;;;;;;;;;;;3.00;99.90;;;;;;5132393;27;19994;-69
2024/01/06 08:08:16;;;;;;;;;;;3.10;99.90;;;;;;5134985;27;20088;-71
2024/01/06 08:10:43;;;;;;;;;;;3.00;99.90;;;;;;5133429;27;20050;-69
2024/01/06 08:13:10;;;;;;;;;;;3.10;99.90;;;;;;5131894;27;19919;-69
2024/01/06 08:15:36;;;;;;;;;;;3.10;99.90;;;;;;5132470;27;19927;-70
2024/01/06 08:18:03;;;;;;;;;;;3.10;99.90;;;;;;5131089;27;19934;-70
2024/01/06 08:20:30;;;;;;;;;;;3.10;99.90;;;;;;5134892;27;19969;-69
2024/01/06 08:22:58;;;;;;;;;;;3.10;99.90;;;;;;5132877;27;19999;-69
2024/01/06 08:25:24;;;;;;;;;;;3.20;99.90;;;;;;5132172;27;19980;-69
2024/01/06 08:27:51;;;;;;;;;;;3.20;99.90;;;;;;5129553;27;20025;-69
2024/01/06 08:30:17;;;;;;;;;;;3.20;99.90;;;;;;5134645;27;19920;-69
2024/01/06 08:32:44;;;;;;;;;;;3.20;99.90;;;;;;5124744;27;19966;-69
2024/01/06 08:35:11;;;;;;;;;;;3.20;99.90;;;;;;5132220;27;20038;-69
2024/01/06 08:37:37;;;;;;;;;;;3.10;99.90;;;;;;5120955;27;19920;-69
2024/01/06 08:40:06;;;;;;;;;;;3.10;99.90;;;;;;5128132;27;19919;-69
2024/01/06 08:42:33;;;;;;;;;;;3.20;99.90;;;;;;5135134;27;19942;-69
2024/01/06 08:44:59;;;;;;;;;;;3.20;99.90;;;;;;5129852;27;20018;-69
2024/01/06 08:47:26;;;;;;;;;;;3.20;99.90;;;;;;5132126;27;19991;-69
2024/01/06 08:49:53;;;;;;;;;;;3.30;99.90;;;;;;5129417;27;20116;-69
2024/01/06 08:52:19;;;;;;;;;;;3.30;99.90;;;;;;5132660;27;20026;-70
2024/01/06 08:54:46;;;;;;;;;;;3.40;99.90;;;;;;5129581;27;19994;-69
2024/01/06 08:57:14;;;;;;;;;;;3.40;99.90;;;;;;5130307;27;20245;-70
2024/01/06 08:59:40;;;;;;;;;;;3.50;99.90;;;;;;5128871;27;19955;-70
2024/01/06 09:02:07;;;;;;;;;;;3.50;99.90;;;;;;5127879;27;20185;-69
2024/01/06 09:04:34;;;;;;;;;;;3.50;99.90;;;;;;5127189;27;20279;-69
2024/01/06 09:07:00;;;;;;;;;;;3.50;99.90;;;;;;5131131;27;19932;-70
2024/01/06 09:09:28;;;;;;;;;;;3.50;99.90;;;;;;5130517;27;19919;-70
2024/01/06 09:11:54;;;;;;;;;;;3.60;99.90;;;;;;5131001;27;20117;-70
2024/01/06 09:14:22;;;;;;;;;;;3.60;99.90;;;;;;5129997;27;19999;-70
2024/01/06 09:16:49;;;;;;;;;;;3.70;99.90;;;;;;5125943;27;19920;-69
2024/01/06 09:19:15;;;;;;;;;;;3.70;99.90;;;;;;5122688;27;19991;-69
2024/01/06 09:21:42;;;;;;;;;;;3.60;99.90;;;;;;5131843;27;19983;-69
2024/01/06 09:24:11;;;;;;;;;;;3.70;99.90;;;;;;5128019;27;19955;-72
2024/01/06 09:26:38;;;;;;;;;;;3.70;99.90;;;;;;5130139;28;19943;-69
2024/01/06 09:29:05;;;;;;;;;;;3.70;99.90;;;;;;5130817;27;19930;-70
2024/01/06 09:31:33;;;;;;;;;;;3.70;99.90;;;;;;5130468;27;19919;-70
2024/01/06 09:34:02;;;;;;;;;;;3.70;99.90;;;;;;5127886;28;19928;-71
2024/01/06 09:36:28;;;;;;;;;;;3.70;99.90;;;;;;5128701;28;19938;-70
2024/01/06 09:38:55;;;;;;;;;;;3.80;99.90;;;;;;5125445;28;19943;-72
2024/01/06 09:41:22;;;;;;;;;;;3.80;99.90;;;;;;5127921;28;20004;-70
2024/01/06 09:43:49;;;;;;;;;;;3.90;99.90;;;;;;5124971;28;19920;-71
2024/01/06 09:46:18;;;;;;;;;;;3.90;99.90;;;;;;5127113;28;20094;-70
2024/01/06 09:48:47;;;;;;;;;;;3.90;99.90;;;;;;5121035;28;19954;-70
2024/01/06 09:51:14;;;;;;;;;;;3.90;99.90;;;;;;5125423;28;19987;-70
2024/01/06 09:53:44;;;;;;;;;;;4.00;99.90;;;;;;5131615;28;20176;-70
2024/01/06 09:56:11;;;;;;;;;;;3.90;99.90;;;;;;5123969;28;20237;-70
2024/01/06 09:58:39;;;;;;;;;;;4.00;99.90;;;;;;5126896;28;19919;-70
2024/01/06 10:01:06;;;;;;;;;;;4.00;99.90;;;;;;5129866;28;19962;-70
2024/01/06 10:03:34;;;;;;;;;;;4.10;99.90;;;;;;5126104;28;19932;-72
2024/01/06 10:06:03;;;;;;;;;;;4.10;99.90;;;;;;5129739;28;19928;-70
2024/01/06 10:08:30;;;;;;;;;;;4.10;99.90;;;;;;5126810;28;19931;-70
2024/01/06 10:10:56;;;;;;;;;;;4.20;99.90;;;;;;5129388;27;19999;-70
2024/01/06 10:13:23;;;;;;;;;;;4.20;99.90;;;;;;5134434;27;19927;-70
2024/01/06 10:15:51;;;;;;;;;;;4.30;99.90;;;;;;5134722;27;19919;-69
2024/01/06 10:18:17;;;;;;;;;;;4.20;99.90;;;;;;5134367;27;19961;-70
2024/01/06 10:20:45;;;;;;;;;;;4.30;99.90;;;;;;5133495;27;20233;-72
2024/01/06 10:23:13;;;;;;;;;;;4.30;99.90;;;;;;5128863;27;20165;-70
2024/01/06 10:25:42;;;;;;;;;;;4.30;99.90;;;;;;5133976;27;20002;-70
2024/01/06 10:28:12;;;;;;;;;;;4.30;99.90;;;;;;5134411;27;20011;-71
2024/01/06 10:30:38;;;;;;;;;;;4.20;99.90;;;;;;5129006;27;20178;-71
2024/01/06 10:33:08;;;;;;;;;;;4.10;99.90;;;;;;5130188;27;19919;-71
2024/01/06 10:35:36;;;;;;;;;;;4.10;99.90;;;;;;5128512;27;19959;-68
2024/01/06 10:38:03;;;;;;;;;;;4.10;99.90;;;;;;5126023;27;19924;-69
2024/01/06 10:40:31;;;;;;;;;;;4.10;99.90;;;;;;5128695;27;19926;-70
2024/01/06 10:42:58;;;;;;;;;;;4.10;99.90;;;;;;5122784;27;19979;-68
2024/01/06 10:45:25;;;;;;;;;;;4.20;99.90;;;;;;5124693;28;19920;-68
2024/01/06 10:47:52;;;;;;;;;;;4.20;99.90;;;;;;5123444;28;19919;-69
2024/01/06 10:50:18;;;;;;;;;;;4.10;99.90;;;;;;5123737;27;19959;-69
2024/01/06 10:52:47;;;;;;;;;;;4.20;99.90;;;;;;5127052;27;19951;-71
2024/01/06 10:55:16;;;;;;;;;;;4.20;99.90;;;;;;5122902;27;19927;-70
2024/01/06 10:57:44;;;;;;;;;;;4.20;99.90;;;;;;5122421;27;19926;-71
2024/01/06 11:00:11;;;;;;;;;;;4.20;99.90;;;;;;5123785;27;19962;-70
2024/01/06 11:02:38;;;;;;;;;;;4.20;99.90;;;;;;5131841;27;19959;-71
2024/01/06 11:05:07;;;;;;;;;;;4.20;99.90;;;;;;5123424;27;19962;-71
2024/01/06 11:07:34;;;;;;;;;;;4.20;99.90;;;;;;5129247;27;20214;-71
2024/01/06 11:10:05;;;;;;;;;;;4.20;99.90;;;;;;5135231;27;20146;-69
2024/01/06 11:12:32;;;;;;;;;;;4.20;99.90;;;;;;5120244;27;19991;-69
2024/01/06 11:15:00;;;;;;;;;;;4.30;99.90;;;;;;5131179;27;20087;-69
2024/01/06 11:17:45;;;;;;;;;;;4.30;99.90;;;;;;5133444;27;19961;-70
2024/01/06 11:20:12;;;;;;;;;;;4.30;99.90;;;;;;5134002;27;19955;-70
2024/01/06 11:22:39;;;;;;;;;;;4.40;99.90;;;;;;5135782;27;19981;-70
2024/01/06 11:25:07;;;;;;;;;;;4.30;99.90;;;;;;5131444;27;19919;-70
2024/01/06 11:27:35;;;;;;;;;;;4.30;99.90;;;;;;5137186;27;19983;-69
2024/01/06 11:30:05;;;;;;;;;;;4.30;99.90;;;;;;5129863;27;19920;-69
2024/01/06 11:32:35;;;;;;;;;;;4.30;99.90;;;;;;5132665;27;19926;-70
2024/01/06 11:35:06;;;;;;;;;;;4.40;99.90;;;;;;5134127;27;19966;-70
2024/01/06 11:37:37;;;;;;;;;;;4.50;99.90;;;;;;5131392;27;20256;-71
2024/01/06 11:40:04;;;;;;;;;;;4.50;99.90;;;;;;5136137;27;19961;-70
2024/01/06 11:42:33;;;;;;;;;;;4.50;99.90;;;;;;5125114;27;19987;-70
2024/01/06 11:45:04;;;;;;;;;;;4.50;99.90;;;;;;5127022;27;19955;-71
2024/01/06 11:47:31;;;;;;;;;;;4.50;99.90;;;;;;5128344;27;20219;-70
2024/01/06 11:49:59;;;;;;;;;;;4.50;99.90;;;;;;5123907;27;19920;-69
2024/01/06 11:52:26;;;;;;;;;;;4.50;99.90;;;;;;5125636;27;19962;-70
2024/01/06 11:54:53;;;;;;;;;;;4.50;99.90;;;;;;5136285;27;19982;-72
2024/01/06 11:57:20;;;;;;;;;;;4.50;99.90;;;;;;5126123;27;19927;-69
2024/01/06 11:59:47;;;;;;;;;;;4.50;99.90;;;;;;5120535;27;19923;-72
2024/01/06 12:02:15;;;;;;;;;;;4.50;99.90;;;;;;5127754;27;19986;-69
2024/01/06 12:04:42;;;;;;;;;;;4.50;99.90;;;;;;5124973;27;19962;-69
2024/01/06 12:07:13;;;;;;;;;;;4.60;99.90;;;;;;5124767;27;19919;-69
2024/01/06 12:09:39;;;;;;;;;;;4.60;99.90;;;;;;5129746;27;19919;-69
2024/01/06 12:12:06;;;;;;;;;;;4.60;99.90;;;;;;5126613;27;19950;-71
2024/01/06 12:14:33;;;;;;;;;;;4.60;99.90;;;;;;5122782;27;19927;-69
2024/01/06 12:17:02;;;;;;;;;;;4.70;99.90;;;;;;5127030;27;20203;-67
2024/01/06 12:19:30;;;;;;;;;;;4.70;99.90;;;;;;5125117;27;19943;-69
2024/01/06 12:21:57;;;;;;;;;;;4.70;99.90;;;;;;5120600;27;19995;-71
2024/01/06 12:24:24;;;;;;;;;;;4.70;99.90;;;;;;5124423;27;20052;-73
2024/01/06 12:26:51;;;;;;;;;;;4.70;99.90;;;;;;5123539;27;20116;-69
2024/01/06 12:29:18;;;;;;;;;;;4.70;99.90;;;;;;5127745;27;19991;-68
2024/01/06 12:31:45;;;;;;;;;;;4.70;99.90;;;;;;5121185;27;19919;-68
2024/01/06 12:34:11;;;;;;;;;;;4.70;99.90;;;;;;5126518;27;19951;-70
2024/01/06 12:36:40;;;;;;;;;;;4.70;99.90;;;;;;5126733;27;20263;-69
2024/01/06 12:39:12;;;;;;;;;;;4.70;99.90;;;;;;5127431;27;20261;-70
2024/01/06 12:41:39;;;;;;;;;;;4.70;99.90;;;;;;5125938;27;19927;-70
2024/01/06 12:44:07;;;;;;;;;;;4.80;99.90;;;;;;5123878;27;20178;-70
2024/01/06 12:46:33;;;;;;;;;;;4.80;99.90;;;;;;5122495;27;19919;-70
2024/01/06 12:49:00;;;;;;;;;;;4.80;99.90;;;;;;5126475;27;19995;-71
2024/01/06 12:51:27;;;;;;;;;;;4.70;99.90;;;;;;5126729;27;19962;-73
2024/01/06 12:53:55;;;;;;;;;;;4.70;99.90;;;;;;5129686;27;20160;-71
2024/01/06 12:56:21;;;;;;;;;;;4.70;99.90;;;;;;5125721;27;19931;-70
2024/01/06 12:58:49;;;;;;;;;;;4.70;99.90;;;;;;5124515;27;19952;-71
2024/01/06 13:01:17;;;;;;;;;;;4.70;99.90;;;;;;5128222;27;20161;-71
2024/01/06 13:03:43;;;;;;;;;;;4.70;99.90;;;;;;5124023;27;19919;-71
2024/01/06 13:06:10;;;;;;;;;;;4.70;99.90;;;;;;5127693;27;19933;-70
2024/01/06 13:08:37;;;;;;;;;;;4.70;99.90;;;;;;5127965;27;19962;-69
2024/01/06 13:11:06;;;;;;;;;;;4.70;99.90;;;;;;5127161;27;19920;-70
2024/01/06 13:13:33;;;;;;;;;;;4.70;99.90;;;;;;5127603;27;20229;-70
2024/01/06 13:16:01;;;;;;;;;;;4.70;99.90;;;;;;5123915;27;19966;-70
2024/01/06 13:18:28;;;;;;;;;;;4.60;99.90;;;;;;5131769;27;19926;-70
2024/01/06 13:20:54;;;;;;;;;;;4.60;99.90;;;;;;5127290;27;19931;-70
2024/01/06 13:23:21;;;;;;;;;;;4.60;99.90;;;;;;5128255;27;19994;-70
2024/01/06 13:25:48;;;;;;;;;;;4.60;99.90;;;;;;5127392;27;20113;-70
2024/01/06 13:28:16;;;;;;;;;;;4.60;99.90;;;;;;5128554;27;19991;-69
2024/01/06 13:30:42;;;;;;;;;;;4.60;99.90;;;;;;5129375;27;19947;-69
2024/01/06 13:33:10;;;;;;;;;;;4.60;99.90;;;;;;5128376;27;19928;-71
2024/01/06 13:35:37;;;;;;;;;;;4.60;99.90;;;;;;5125962;28;20128;-69
2024/01/06 13:38:05;;;;;;;;;;;4.70;99.90;;;;;;5130248;28;19927;-70
2024/01/06 13:40:31;;;;;;;;;;;4.60;99.90;;;;;;5132137;28;19932;-69
2024/01/06 13:42:59;;;;;;;;;;;4.60;99.90;;;;;;5129970;28;20779;-69
2024/01/06 13:45:30;;;;;;;;;;;4.60;99.90;;;;;;5129606;28;19953;-69
2024/01/06 13:47:56;;;;;;;;;;;4.70;99.90;;;;;;5135861;27;20146;-70
2024/01/06 13:50:22;;;;;;;;;;;4.60;99.90;;;;;;5132520;27;19943;-68
2024/01/06 13:52:49;;;;;;;;;;;4.60;99.90;;;;;;5135254;27;19919;-70
2024/01/06 13:55:15;;;;;;;;;;;4.60;99.90;;;;;;5135446;27;19982;-70
2024/01/06 13:57:42;;;;;;;;;;;4.60;99.90;;;;;;5132096;27;20305;-69
2024/01/06 14:00:10;;;;;;;;;;;4.60;99.90;;;;;;5132748;27;19950;-72
2024/01/06 14:02:38;;;;;;;;;;;4.60;99.90;;;;;;5128834;27;19926;-69
2024/01/06 14:05:08;;;;;;;;;;;4.60;99.90;;;;;;5132222;27;19933;-70
2024/01/06 14:07:34;;;;;;;;;;;4.60;99.90;;;;;;5131809;27;19921;-70
2024/01/06 14:10:03;;;;;;;;;;;4.70;99.90;;;;;;5129823;27;19978;-69
2024/01/06 14:12:30;;;;;;;;;;;4.70;99.90;;;;;;5133174;27;20109;-69
2024/01/06 14:14:56;;;;;;;;;;;4.70;99.90;;;;;;5130956;27;20157;-69
2024/01/06 14:17:23;;;;;;;;;;;4.70;99.90;;;;;;5131021;27;19939;-70
2024/01/06 14:19:52;;;;;;;;;;;4.70;99.90;;;;;;5132506;27;19991;-70
2024/01/06 14:22:18;;;;;;;;;;;4.70;99.90;;;;;;5134710;27;20260;-70
2024/01/06 14:24:45;;;;;;;;;;;4.70;99.90;;;;;;5132698;27;20112;-70
2024/01/06 14:27:12;;;;;;;;;;;4.70;99.90;;;;;;5134153;27;19994;-69
2024/01/06 14:29:39;;;;;;;;;;;4.70;99.90;;;;;;5129972;27;19919;-70